Latest Weather Observations for Taree Airport

IDN60801

Issued at 11:35 am EST Saturday 20 September 2014 (issued every 30 minutes, with the page automatically refreshed every 10 minutes)

About weather observations | Map of weather stations | Latest weather observations for NSW | Other Formats
Station Details ID: 060141 Name: TAREE AIRPORT AWS Lat: -31.89 Lon: 152.51 Height: 8.0 m
Data from the previous 72 hours. | See also: Recent months at Taree Airport
Date/Time
EST
Temp
°C
App
Temp
°C
Dew
Point
Rel
Hum
%
Delta-T
°C
Wind Press
QNH
hPa
Press
MSL
hPa
Rain
since 9 am
mm
Dir
 
Spd
km/h
Gust
km/h
Spd
kts
Gust
kts
20/11:30am 19.7 17.1 4.2 36 7.4 W 7 15 4 8 1022.7 1022.7 0.0
20/11:00am 19.4 16.4 4.3 37 7.2 S 9 19 5 10 1022.9 1022.9 0.0
20/10:30am 18.5 15.7 5.0 41 6.5 W 9 15 5 8 1023.0 1023.0 0.0
20/10:00am 17.8 14.8 6.0 46 5.8 WSW 11 17 6 9 1023.1 1023.1 0.0
20/09:30am 16.8 13.4 5.7 48 5.4 W 13 15 7 8 1023.4 1023.4 0.0
20/09:00am 14.9 11.6 6.2 56 4.2 W 13 17 7 9 1023.5 1023.5 0.0
20/08:30am 13.5 10.7 7.1 65 3.1 W 11 15 6 8 1023.5 1023.5 0.0
20/08:00am 11.6 8.2 6.1 69 2.6 W 13 17 7 9 1023.3 1023.3 0.0
20/07:30am 10.0 7.0 6.0 76 1.8 W 11 15 6 8 1023.3 1023.3 0.0
20/07:00am 8.2 5.5 5.5 83 1.2 WNW 9 13 5 7 1023.1 1023.1 0.0
20/06:30am 7.0 3.7 4.8 86 1.0 W 11 15 6 8 1022.5 1022.5 0.0
20/06:00am 5.8 3.2 4.4 91 0.6 W 7 11 4 6 1022.0 1022.0 0.0
20/05:30am 5.9 3.0 4.4 90 0.6 W 9 11 5 6 1021.7 1021.7 0.0
20/05:00am 6.3 3.4 4.6 89 0.7 W 9 13 5 7 1021.3 1021.3 0.0
20/04:30am 5.5 3.5 4.5 93 0.4 WNW 4 9 2 5 1020.8 1020.8 0.0
20/04:00am 4.7 2.0 3.5 92 0.5 NW 7 9 4 5 1020.7 1020.7 0.0
20/03:30am 6.3 3.8 4.8 90 0.7 NW 7 7 4 4 1020.4 1020.4 0.0
20/03:00am 5.0 2.9 3.7 91 0.5 N 4 7 2 4 1020.3 1020.3 0.0
20/02:30am 5.4 3.0 4.1 91 0.6 NW 6 7 3 4 1020.5 1020.5 0.0
20/02:00am 6.3 5.2 5.1 92 0.5 CALM 0 0 0 0 1020.7 1020.7 0.0
20/01:30am 5.8 3.4 4.1 89 0.7 WNW 6 7 3 4 1020.8 1020.8 0.0
20/01:00am 6.3 4.0 4.9 91 0.6 NNW 6 7 3 4 1021.0 1021.0 0.0
20/12:30am 6.2 3.5 3.9 85 1.0 NNW 7 9 4 5 1021.1 1021.1 0.0
20/12:00am 8.5 5.5 6.0 84 1.1 W 11 13 6 7 1021.2 1021.2 0.0
 
Date/Time
EST
Temp
°C
App
Temp
°C
Dew
Point
Rel
Hum
%
Delta-T
°C
Wind Press
QNH
hPa
Press
MSL
hPa
Rain
since 9 am
mm
Dir
 
Spd
km/h
Gust
km/h
Spd
kts
Gust
kts
19/11:30pm 8.4 6.4 6.2 86 1.0 SW 6 9 3 5 1021.3 1021.3 0.0
19/11:00pm 8.4 6.4 6.2 86 1.0 WSW 6 9 3 5 1021.6 1021.6 0.0
19/10:30pm 8.7 6.0 5.8 82 1.3 W 9 9 5 5 1021.8 1021.8 0.0
19/10:00pm 8.5 7.4 5.3 80 1.4 CALM 0 0 0 0 1021.8 1021.8 0.0
19/09:30pm 9.1 7.0 5.8 80 1.5 W 6 7 3 4 1021.7 1021.7 0.0
19/09:00pm 9.6 7.4 6.0 78 1.6 W 7 7 4 4 1021.5 1021.5 0.0
19/08:30pm 10.4 8.2 6.2 75 2.0 W 7 9 4 5 1021.5 1021.5 0.0
19/08:00pm 10.4 9.7 7.1 80 1.6 CALM 0 2 0 1 1021.3 1021.3 0.0
19/07:30pm 10.9 8.9 6.3 73 2.2 NNW 6 9 3 5 1021.0 1021.0 0.0
19/07:00pm 11.2 9.1 5.9 70 2.5 NW 6 7 3 4 1020.7 1020.7 0.0
19/06:30pm 11.9 9.9 6.2 68 2.7 NNW 6 7 3 4 1020.2 1020.2 0.0
19/06:00pm 12.8 10.7 5.7 62 3.3 ENE 6 7 3 4 1019.8 1019.8 0.0
19/05:30pm 14.7 12.0 5.8 55 4.2 SE 9 13 5 7 1019.4 1019.4 0.0
19/05:00pm 16.0 12.2 5.6 50 5.0 SE 15 20 8 11 1019.1 1019.1 0.0
19/04:30pm 16.5 12.8 4.5 45 5.6 SE 13 17 7 9 1018.9 1018.9 0.0
19/04:00pm 16.7 12.9 3.7 42 6.0 SE 13 19 7 10 1018.7 1018.7 0.0
19/03:30pm 17.4 14.4 2.2 36 6.9 SSW 7 11 4 6 1018.5 1018.5 0.0
19/03:00pm 17.2 13.5 2.4 37 6.7 SSW 11 17 6 9 1018.5 1018.5 0.0
19/02:30pm 17.7 14.1 3.2 38 6.7 S 11 17 6 9 1018.6 1018.6 0.0
19/02:00pm 17.5 13.9 3.0 38 6.6 SSW 11 17 6 9 1018.7 1018.7 0.0
19/01:30pm 16.6 12.8 1.5 36 6.7 S 11 15 6 8 1019.0 1019.0 0.0
19/01:00pm 16.5 13.0 3.6 42 5.9 S 11 15 6 8 1019.5 1019.5 0.0
19/12:30pm 16.5 14.5 4.2 44 5.7 S 4 11 2 6 1020.0 1020.0 0.0
19/12:00pm 16.2 13.0 3.3 42 5.9 WNW 9 13 5 7 1020.4 1020.4 0.0
19/11:30am 16.1 12.9 3.2 42 5.9 W 9 11 5 6 1020.8 1020.8 0.0
19/11:00am 16.4 13.4 4.1 44 5.7 SW 9 13 5 7 1021.4 1021.4 0.0
19/10:30am 15.9 12.1 3.7 44 5.6 W 13 17 7 9 1021.8 1021.8 0.0
19/10:00am 15.5 12.2 4.8 49 5.0 SW 11 19 6 10 1021.9 1021.9 0.0
19/09:30am 15.1 12.1 5.9 54 4.4 WSW 11 17 6 9 1022.1 1022.1 0.0
19/09:00am 14.2 10.4 5.6 56 4.0 W 15 20 8 11 1022.4 1022.4 0.0
19/08:30am 13.0 10.0 6.1 63 3.3 WSW 11 15 6 8 1022.3 1022.3 0.0
19/08:00am 11.7 8.8 6.4 70 2.5 W 11 17 6 9 1022.3 1022.3 0.0
19/07:30am 9.9 6.9 6.2 78 1.7 W 11 15 6 8 1022.1 1022.1 0.0
19/07:00am 9.2 6.6 5.9 80 1.5 WNW 9 11 5 6 1021.9 1021.9 0.0
19/06:30am 8.1 5.4 5.6 84 1.1 W 9 13 5 7 1021.7 1021.7 0.0
19/06:00am 7.2 4.9 5.5 89 0.8 W 7 9 4 5 1021.3 1021.3 0.0
19/05:30am 7.0 4.7 5.6 91 0.6 W 7 9 4 5 1021.0 1021.0 0.0
19/05:00am 6.8 4.4 5.4 91 0.6 W 7 9 4 5 1020.8 1020.8 0.0
19/04:30am 6.8 4.6 5.3 90 0.7 W 6 9 3 5 1020.4 1020.4 0.0
19/04:00am 7.1 4.7 5.3 88 0.8 NW 7 9 4 5 1020.5 1020.5 0.0
19/03:30am 7.4 4.8 5.9 90 0.7 W 9 11 5 6 1020.3 1020.3 0.0
19/03:00am 7.9 5.2 5.5 85 1.1 W 9 11 5 6 1020.3 1020.3 0.0
19/02:30am 8.0 5.3 5.6 85 1.1 W 9 13 5 7 1020.4 1020.4 0.0
19/02:00am 7.9 5.3 5.9 87 0.9 W 9 11 5 6 1020.4 1020.4 0.0
19/01:30am 8.1 6.3 5.4 83 1.2 NNW 4 7 2 4 1020.7 1020.7 0.0
19/01:00am 8.7 6.0 5.8 82 1.3 WNW 9 11 5 6 1020.8 1020.8 0.0
19/12:30am 9.0 7.6 5.7 80 1.5 WNW 2 9 1 5 1020.9 1020.9 0.0
19/12:00am 9.2 7.1 5.8 79 1.5 WNW 6 9 3 5 1021.0 1021.0 0.0
 
Date/Time
EST
Temp
°C
App
Temp
°C
Dew
Point
Rel
Hum
%
Delta-T
°C
Wind Press
QNH
hPa
Press
MSL
hPa
Rain
since 9 am
mm
Dir
 
Spd
km/h
Gust
km/h
Spd
kts
Gust
kts
18/11:30pm 9.6 7.4 6.0 78 1.7 WNW 7 11 4 6 1021.0 1021.0 0.0
18/11:00pm 9.7 7.6 5.9 77 1.7 NW 6 9 3 5 1021.1 1021.1 0.0
18/10:30pm 8.4 6.5 5.0 79 1.5 N 4 6 2 3 1021.2 1021.2 0.0
18/10:00pm 10.4 7.8 6.2 75 1.9 W 9 11 5 6 1021.1 1021.1 0.0
18/09:30pm 10.4 9.6 6.4 76 1.9 CALM 0 0 0 0 1021.0 1021.0 0.0
18/09:00pm 10.8 8.0 6.9 77 1.8 WSW 11 11 6 6 1020.8 1020.8 0.0
18/08:30pm 12.2 9.2 5.8 65 3.0 W 11 11 6 6 1020.6 1020.6 0.0
18/08:00pm 11.0 9.2 5.5 69 2.5 WNW 4 7 2 4 1020.3 1020.3 0.0
18/07:30pm 13.1 11.0 6.5 64 3.2 W 7 7 4 4 1019.8 1019.8 0.0
18/07:00pm 13.2 11.5 6.1 62 3.4 NNW 4 7 2 4 1019.3 1019.3 0.0
18/06:30pm 14.1 11.9 5.5 56 4.1 S 6 7 3 4 1018.7 1018.7 0.0
18/06:00pm 14.5 11.7 5.3 54 4.3 S 9 13 5 7 1018.3 1018.3 0.0
18/05:30pm 15.5 11.6 5.4 51 4.8 SSE 15 20 8 11 1017.9 1017.9 0.0
18/05:00pm 16.1 11.3 5.4 49 5.1 SSE 20 30 11 16 1017.4 1017.4 0.0
18/04:30pm 16.4 10.8 5.4 48 5.3 SSE 24 33 13 18 1016.8 1016.8 0.0
18/04:00pm 17.3 11.5 6.2 48 5.4 SE 26 35 14 19 1016.3 1016.3 0.0
18/03:30pm 17.7 11.6 6.6 48 5.5 SE 28 39 15 21 1015.9 1015.9 0.0
18/03:00pm 18.1 11.9 6.3 46 5.8 ESE 28 35 15 19 1015.7 1015.7 0.0
18/02:30pm 19.5 14.9 6.6 43 6.5 ESE 20 33 11 18 1015.4 1015.4 0.0
18/02:00pm 19.7 14.7 3.8 35 7.5 E 19 26 10 14 1015.4 1015.4 0.0
18/01:30pm 20.9 16.8 2.2 29 8.7 ESE 13 20 7 11 1015.5 1015.5 0.0
18/01:00pm 21.3 16.2 -1.9 21 10.0 WSW 15 22 8 12 1015.8 1015.8 0.0
18/12:30pm 20.8 16.1 -1.7 22 9.7 WSW 13 20 7 11 1016.0 1016.0 0.0
18/12:00pm 20.9 16.4 -0.4 24 9.4 WSW 13 26 7 14 1016.4 1016.4 0.0
18/11:30am 19.8 14.7 -1.9 23 9.2 WSW 15 26 8 14 1016.9 1016.9 0.0
18/11:00am 19.1 13.4 -0.8 26 8.6 WSW 19 30 10 16 1017.4 1017.4 0.0
18/10:30am 19.2 14.0 -0.2 27 8.5 SW 17 24 9 13 1017.7 1017.7 0.0
18/10:00am 18.5 13.0 1.9 33 7.5 W 20 28 11 15 1018.1 1018.1 0.0
18/09:30am 17.9 12.9 1.4 33 7.4 W 17 28 9 15 1018.1 1018.1 0.0
18/09:00am 17.0 11.4 1.0 34 7.0 W 20 35 11 19 1018.4 1018.4 0.0
18/08:30am 16.5 12.1 2.5 39 6.3 W 15 26 8 14 1018.4 1018.4 0.0
18/08:00am 15.4 11.4 2.9 43 5.6 W 13 22 7 12 1018.3 1018.3 0.0
18/07:30am 14.1 10.9 3.3 48 4.9 W 9 13 5 7 1018.1 1018.1 0.0
18/07:00am 12.4 9.9 4.6 59 3.5 WNW 7 11 4 6 1017.9 1017.9 0.0
18/06:30am 8.8 7.6 4.6 75 1.9 CALM 0 0 0 0 1017.6 1017.6 0.0
18/06:00am 7.0 5.7 4.0 81 1.3 CALM 0 0 0 0 1017.2 1017.2 0.0
18/05:30am 7.0 5.8 4.7 85 1.0 CALM 0 0 0 0 1016.9 1016.9 0.0
18/05:00am 7.3 6.1 4.6 83 1.2 CALM 0 0 0 0 1016.5 1016.5 0.0
18/04:30am 8.0 6.9 4.9 81 1.4 CALM 0 0 0 0 1016.2 1016.2 0.0
18/04:00am 8.4 7.3 5.0 79 1.5 CALM 0 0 0 0 1015.8 1015.8 0.0
18/03:30am 8.3 6.3 4.3 76 1.7 NW 4 7 2 4 1015.6 1015.6 0.0
18/03:00am 7.2 5.9 4.0 80 1.4 CALM 0 0 0 0 1015.5 1015.5 0.0
18/02:30am 10.8 8.3 4.5 65 2.8 W 7 11 4 6 1015.4 1015.4 0.0
18/02:00am 10.6 7.8 5.2 69 2.5 W 9 11 5 6 1015.3 1015.3 0.0
18/01:30am 10.2 8.2 7.1 81 1.5 SW 7 9 4 5 1015.4 1015.4 0.0
18/01:00am 11.0 8.2 6.9 76 1.9 W 11 13 6 7 1015.3 1015.3 0.0
18/12:30am 11.1 10.1 5.6 69 2.5 CALM 0 0 0 0 1015.3 1015.3 0.0
18/12:00am 12.6 11.7 6.0 64 3.1 CALM 0 0 0 0 1015.2 1015.2 0.0
 
Date/Time
EST
Temp
°C
App
Temp
°C
Dew
Point
Rel
Hum
%
Delta-T
°C
Wind Press
QNH
hPa
Press
MSL
hPa
Rain
since 9 am
mm
Dir
 
Spd
km/h
Gust
km/h
Spd
kts
Gust
kts
17/11:30pm 12.7 12.1 7.2 69 2.7 CALM 0 0 0 0 1015.2 1015.2 0.0
17/11:00pm 13.3 11.1 5.5 59 3.7 WNW 6 7 3 4 1015.2 1015.2 0.0
17/10:30pm 14.7 12.5 6.0 56 4.2 W 7 9 4 5 1015.1 1015.1 0.0
17/10:00pm 15.0 12.9 6.6 57 4.1 WSW 7 9 4 5 1015.0 1015.0 0.0
17/09:30pm 16.1 13.7 5.1 48 5.2 W 7 9 4 5 1014.9 1014.9 0.0
17/09:00pm 16.6 14.1 6.4 51 5.0 W 9 11 5 6 1014.6 1014.6 0.0
17/08:30pm 15.5 14.4 10.1 70 2.8 NNW 6 7 3 4 1014.4 1014.4 0.0
17/08:00pm 16.1 16.2 10.2 68 3.1 CALM 0 0 0 0 1014.2 1014.2 0.0
17/07:30pm 16.5 15.7 9.7 64 3.6 SSW 4 9 2 5 1014.0 1014.0 0.0
17/07:00pm 16.2 15.1 9.8 66 3.3 ENE 6 9 3 5 1013.5 1013.5 0.0
17/06:30pm 17.1 16.0 9.8 62 3.8 ENE 6 7 3 4 1013.0 1013.0 0.0
17/06:00pm 17.3 15.2 9.7 61 4.0 ENE 11 13 6 7 1012.3 1012.3 0.0
17/05:30pm 17.8 14.5 9.4 58 4.4 NE 17 26 9 14 1011.9 1011.9 0.0
17/05:00pm 18.6 15.9 8.8 53 5.1 NE 13 19 7 10 1011.7 1011.7 0.0
17/04:30pm 22.6 17.5 3.2 28 9.3 WNW 19 28 10 15 1011.0 1011.0 0.0
17/04:00pm 22.6 16.5 2.7 27 9.5 W 24 30 13 16 1010.1 1010.1 0.0
17/03:30pm 23.3 18.1 2.7 26 9.8 W 19 32 10 17 1009.6 1009.6 0.0
17/03:00pm 23.4 17.5 1.7 24 10.2 W 22 35 12 19 1009.5 1009.5 0.0
17/02:30pm 23.3 17.8 1.6 24 10.2 W 20 35 11 19 1009.5 1009.5 0.0
17/02:00pm 22.8 17.7 2.8 27 9.6 W 19 32 10 17 1009.5 1009.5 0.0
17/01:30pm 23.1 19.1 5.1 31 9.0 WSW 15 22 8 12 1009.7 1009.7 0.0
17/01:00pm 22.6 18.1 4.2 30 9.0 NW 17 24 9 13 1010.1 1010.1 0.0
17/12:30pm 22.4 18.0 4.9 32 8.7 NW 17 26 9 14 1010.4 1010.4 0.0
17/12:00pm 21.7 17.9 6.0 36 7.9 W 15 26 8 14 1010.8 1010.8 0.0

Other Formats:

Comma delimited format used in spreadsheet applications
http://www.bom.gov.au/fwo/IDN60801/IDN60801.95784.axf

JavaScript Object Notation format (JSON) in row-major order
http://www.bom.gov.au/fwo/IDN60801/IDN60801.95784.json